sensor_id;sensor_type;location;lat;lon;timestamp;P1;durP1;ratioP1;P2;durP2;ratioP2
21979;SDS011;11154;48.558;9.234;2022-07-23T00:01:22;5.80;;;4.40;;
21979;SDS011;11154;48.558;9.234;2022-07-23T00:03:26;5.88;;;4.80;;
21979;SDS011;11154;48.558;9.234;2022-07-23T00:05:28;8.52;;;4.55;;
21979;SDS011;11154;48.558;9.234;2022-07-23T00:07:29;5.07;;;4.55;;
21979;SDS011;11154;48.558;9.234;2022-07-23T00:09:31;6.55;;;4.47;;
21979;SDS011;11154;48.558;9.234;2022-07-23T00:11:33;9.13;;;4.63;;
21979;SDS011;11154;48.558;9.234;2022-07-23T00:13:36;6.47;;;4.57;;
21979;SDS011;11154;48.558;9.234;2022-07-23T00:15:37;4.97;;;4.28;;
21979;SDS011;11154;48.558;9.234;2022-07-23T00:17:39;4.80;;;4.18;;
21979;SDS011;11154;48.558;9.234;2022-07-23T00:19:42;5.53;;;4.90;;
21979;SDS011;11154;48.558;9.234;2022-07-23T00:21:44;5.05;;;4.55;;
21979;SDS011;11154;48.558;9.234;2022-07-23T00:23:46;8.45;;;5.18;;
21979;SDS011;11154;48.558;9.234;2022-07-23T00:25:47;8.13;;;5.45;;
21979;SDS011;11154;48.558;9.234;2022-07-23T00:27:49;6.78;;;5.22;;
21979;SDS011;11154;48.558;9.234;2022-07-23T00:29:51;7.18;;;5.10;;
21979;SDS011;11154;48.558;9.234;2022-07-23T00:31:52;6.80;;;5.10;;
21979;SDS011;11154;48.558;9.234;2022-07-23T00:33:54;8.23;;;5.45;;
21979;SDS011;11154;48.558;9.234;2022-07-23T00:35:58;6.68;;;5.35;;
21979;SDS011;11154;48.558;9.234;2022-07-23T00:38:00;7.80;;;6.00;;
21979;SDS011;11154;48.558;9.234;2022-07-23T00:40:03;5.82;;;5.07;;
21979;SDS011;11154;48.558;9.234;2022-07-23T00:42:06;8.45;;;5.45;;
21979;SDS011;11154;48.558;9.234;2022-07-23T00:44:14;6.75;;;5.00;;
21979;SDS011;11154;48.558;9.234;2022-07-23T00:46:18;5.90;;;4.63;;
21979;SDS011;11154;48.558;9.234;2022-07-23T00:48:20;7.72;;;5.47;;
21979;SDS011;11154;48.558;9.234;2022-07-23T00:50:22;5.60;;;5.03;;
21979;SDS011;11154;48.558;9.234;2022-07-23T00:52:25;5.13;;;4.63;;
21979;SDS011;11154;48.558;9.234;2022-07-23T00:54:27;6.20;;;5.22;;
21979;SDS011;11154;48.558;9.234;2022-07-23T00:56:29;6.80;;;4.55;;
21979;SDS011;11154;48.558;9.234;2022-07-23T00:58:31;6.88;;;4.45;;
21979;SDS011;11154;48.558;9.234;2022-07-23T01:00:35;6.60;;;4.70;;
21979;SDS011;11154;48.558;9.234;2022-07-23T01:02:37;5.95;;;4.07;;
21979;SDS011;11154;48.558;9.234;2022-07-23T01:04:39;7.03;;;4.07;;
21979;SDS011;11154;48.558;9.234;2022-07-23T01:06:41;5.38;;;4.00;;
21979;SDS011;11154;48.558;9.234;2022-07-23T01:08:46;6.53;;;4.53;;
21979;SDS011;11154;48.558;9.234;2022-07-23T01:10:48;5.80;;;4.80;;
21979;SDS011;11154;48.558;9.234;2022-07-23T01:12:51;5.20;;;4.70;;
21979;SDS011;11154;48.558;9.234;2022-07-23T01:14:53;7.65;;;4.32;;
21979;SDS011;11154;48.558;9.234;2022-07-23T01:16:56;5.88;;;4.15;;
21979;SDS011;11154;48.558;9.234;2022-07-23T01:18:57;5.07;;;4.55;;
21979;SDS011;11154;48.558;9.234;2022-07-23T01:20:59;6.20;;;4.85;;
21979;SDS011;11154;48.558;9.234;2022-07-23T01:23:02;6.93;;;4.45;;
21979;SDS011;11154;48.558;9.234;2022-07-23T01:25:04;6.75;;;4.65;;
21979;SDS011;11154;48.558;9.234;2022-07-23T01:27:07;7.00;;;5.00;;
21979;SDS011;11154;48.558;9.234;2022-07-23T01:29:08;6.90;;;4.30;;
21979;SDS011;11154;48.558;9.234;2022-07-23T01:31:10;6.82;;;5.13;;
21979;SDS011;11154;48.558;9.234;2022-07-23T01:33:12;7.47;;;4.90;;
21979;SDS011;11154;48.558;9.234;2022-07-23T01:35:14;6.03;;;4.50;;
21979;SDS011;11154;48.558;9.234;2022-07-23T01:37:16;5.35;;;4.53;;
21979;SDS011;11154;48.558;9.234;2022-07-23T01:39:19;6.15;;;4.60;;
21979;SDS011;11154;48.558;9.234;2022-07-23T01:41:21;7.00;;;4.75;;
21979;SDS011;11154;48.558;9.234;2022-07-23T01:43:22;4.72;;;4.20;;
21979;SDS011;11154;48.558;9.234;2022-07-23T01:45:24;5.93;;;4.18;;
21979;SDS011;11154;48.558;9.234;2022-07-23T01:47:26;5.13;;;4.38;;
21979;SDS011;11154;48.558;9.234;2022-07-23T01:49:27;6.00;;;4.38;;
21979;SDS011;11154;48.558;9.234;2022-07-23T01:51:29;5.68;;;4.78;;
21979;SDS011;11154;48.558;9.234;2022-07-23T01:53:31;5.28;;;4.25;;
21979;SDS011;11154;48.558;9.234;2022-07-23T01:55:34;5.90;;;4.40;;
21979;SDS011;11154;48.558;9.234;2022-07-23T01:57:36;5.55;;;4.50;;
21979;SDS011;11154;48.558;9.234;2022-07-23T01:59:38;5.72;;;5.05;;
21979;SDS011;11154;48.558;9.234;2022-07-23T02:01:40;6.13;;;4.65;;
21979;SDS011;11154;48.558;9.234;2022-07-23T02:03:41;5.85;;;4.72;;
21979;SDS011;11154;48.558;9.234;2022-07-23T02:05:43;5.28;;;4.47;;
21979;SDS011;11154;48.558;9.234;2022-07-23T02:07:45;6.95;;;4.55;;
21979;SDS011;11154;48.558;9.234;2022-07-23T02:09:46;8.55;;;4.43;;
21979;SDS011;11154;48.558;9.234;2022-07-23T02:11:49;5.90;;;4.65;;
21979;SDS011;11154;48.558;9.234;2022-07-23T02:13:51;5.35;;;4.43;;
21979;SDS011;11154;48.558;9.234;2022-07-23T02:15:53;4.60;;;4.20;;
21979;SDS011;11154;48.558;9.234;2022-07-23T02:17:54;5.32;;;4.60;;
21979;SDS011;11154;48.558;9.234;2022-07-23T02:19:57;7.30;;;3.88;;
21979;SDS011;11154;48.558;9.234;2022-07-23T02:21:58;5.07;;;4.35;;
21979;SDS011;11154;48.558;9.234;2022-07-23T02:24:00;4.70;;;4.20;;
21979;SDS011;11154;48.558;9.234;2022-07-23T02:26:02;7.32;;;4.70;;
21979;SDS011;11154;48.558;9.234;2022-07-23T02:28:05;5.05;;;3.97;;
21979;SDS011;11154;48.558;9.234;2022-07-23T02:30:07;4.63;;;4.22;;
21979;SDS011;11154;48.558;9.234;2022-07-23T02:32:09;6.07;;;3.85;;
21979;SDS011;11154;48.558;9.234;2022-07-23T02:34:11;3.88;;;3.58;;
21979;SDS011;11154;48.558;9.234;2022-07-23T02:36:12;3.95;;;3.60;;
21979;SDS011;11154;48.558;9.234;2022-07-23T02:38:14;4.38;;;3.25;;
21979;SDS011;11154;48.558;9.234;2022-07-23T02:40:16;4.38;;;3.40;;
21979;SDS011;11154;48.558;9.234;2022-07-23T02:42:18;6.78;;;3.83;;
21979;SDS011;11154;48.558;9.234;2022-07-23T02:44:21;3.63;;;3.08;;
21979;SDS011;11154;48.558;9.234;2022-07-23T02:46:23;4.85;;;3.33;;
21979;SDS011;11154;48.558;9.234;2022-07-23T02:48:24;3.53;;;3.20;;
21979;SDS011;11154;48.558;9.234;2022-07-23T02:50:26;4.15;;;3.30;;
21979;SDS011;11154;48.558;9.234;2022-07-23T02:52:28;7.25;;;4.10;;
21979;SDS011;11154;48.558;9.234;2022-07-23T02:54:29;6.68;;;3.55;;
21979;SDS011;11154;48.558;9.234;2022-07-23T02:56:31;4.60;;;3.67;;
21979;SDS011;11154;48.558;9.234;2022-07-23T02:58:33;4.20;;;3.38;;
21979;SDS011;11154;48.558;9.234;2022-07-23T03:00:36;6.63;;;3.53;;
21979;SDS011;11154;48.558;9.234;2022-07-23T03:02:38;6.15;;;3.80;;
21979;SDS011;11154;48.558;9.234;2022-07-23T03:04:40;4.30;;;3.90;;
21979;SDS011;11154;48.558;9.234;2022-07-23T03:06:42;4.93;;;4.00;;
21979;SDS011;11154;48.558;9.234;2022-07-23T03:08:44;6.30;;;4.18;;
21979;SDS011;11154;48.558;9.234;2022-07-23T03:10:45;4.07;;;3.67;;
21979;SDS011;11154;48.558;9.234;2022-07-23T03:12:47;6.50;;;3.50;;
21979;SDS011;11154;48.558;9.234;2022-07-23T03:14:49;3.95;;;3.63;;
21979;SDS011;11154;48.558;9.234;2022-07-23T03:16:52;4.82;;;3.97;;
21979;SDS011;11154;48.558;9.234;2022-07-23T03:18:54;4.93;;;3.55;;
21979;SDS011;11154;48.558;9.234;2022-07-23T03:20:56;5.10;;;3.60;;
21979;SDS011;11154;48.558;9.234;2022-07-23T03:22:57;5.75;;;3.80;;
21979;SDS011;11154;48.558;9.234;2022-07-23T03:24:59;4.45;;;3.38;;
21979;SDS011;11154;48.558;9.234;2022-07-23T03:27:01;5.43;;;3.58;;
21979;SDS011;11154;48.558;9.234;2022-07-23T03:29:03;5.05;;;3.85;;
21979;SDS011;11154;48.558;9.234;2022-07-23T03:31:05;5.30;;;3.80;;
21979;SDS011;11154;48.558;9.234;2022-07-23T03:33:08;8.25;;;3.95;;
21979;SDS011;11154;48.558;9.234;2022-07-23T03:35:09;6.00;;;4.10;;
21979;SDS011;11154;48.558;9.234;2022-07-23T03:37:11;5.88;;;4.32;;
21979;SDS011;11154;48.558;9.234;2022-07-23T03:39:13;4.05;;;3.72;;
21979;SDS011;11154;48.558;9.234;2022-07-23T03:41:15;6.50;;;4.50;;
21979;SDS011;11154;48.558;9.234;2022-07-23T03:43:16;5.13;;;3.70;;
21979;SDS011;11154;48.558;9.234;2022-07-23T03:45:18;4.40;;;4.00;;
21979;SDS011;11154;48.558;9.234;2022-07-23T03:47:20;4.63;;;3.90;;
21979;SDS011;11154;48.558;9.234;2022-07-23T03:49:24;7.75;;;4.13;;
21979;SDS011;11154;48.558;9.234;2022-07-23T03:51:25;4.05;;;3.65;;
21979;SDS011;11154;48.558;9.234;2022-07-23T03:53:27;4.45;;;3.65;;
21979;SDS011;11154;48.558;9.234;2022-07-23T03:55:29;5.00;;;3.97;;
21979;SDS011;11154;48.558;9.234;2022-07-23T03:57:30;5.72;;;3.90;;
21979;SDS011;11154;48.558;9.234;2022-07-23T03:59:32;4.25;;;3.85;;
21979;SDS011;11154;48.558;9.234;2022-07-23T04:01:34;4.95;;;3.90;;
21979;SDS011;11154;48.558;9.234;2022-07-23T04:03:36;4.18;;;3.78;;
21979;SDS011;11154;48.558;9.234;2022-07-23T04:05:39;6.57;;;4.07;;
21979;SDS011;11154;48.558;9.234;2022-07-23T04:07:41;4.80;;;4.18;;
21979;SDS011;11154;48.558;9.234;2022-07-23T04:09:42;5.25;;;4.25;;
21979;SDS011;11154;48.558;9.234;2022-07-23T04:11:44;7.15;;;4.00;;
21979;SDS011;11154;48.558;9.234;2022-07-23T04:13:46;6.07;;;4.13;;
21979;SDS011;11154;48.558;9.234;2022-07-23T04:15:47;5.80;;;4.43;;
21979;SDS011;11154;48.558;9.234;2022-07-23T04:17:50;5.03;;;4.13;;
21979;SDS011;11154;48.558;9.234;2022-07-23T04:19:52;5.20;;;4.32;;
21979;SDS011;11154;48.558;9.234;2022-07-23T04:21:55;4.80;;;4.40;;
21979;SDS011;11154;48.558;9.234;2022-07-23T04:23:57;5.32;;;4.45;;
21979;SDS011;11154;48.558;9.234;2022-07-23T04:25:58;5.72;;;4.35;;
21979;SDS011;11154;48.558;9.234;2022-07-23T04:28:00;8.50;;;4.63;;
21979;SDS011;11154;48.558;9.234;2022-07-23T04:30:01;6.70;;;4.30;;
21979;SDS011;11154;48.558;9.234;2022-07-23T04:32:04;5.93;;;4.35;;
21979;SDS011;11154;48.558;9.234;2022-07-23T04:34:06;5.90;;;4.05;;
21979;SDS011;11154;48.558;9.234;2022-07-23T04:36:08;6.03;;;4.30;;
21979;SDS011;11154;48.558;9.234;2022-07-23T04:38:11;5.70;;;3.97;;
21979;SDS011;11154;48.558;9.234;2022-07-23T04:40:13;5.72;;;4.00;;
21979;SDS011;11154;48.558;9.234;2022-07-23T04:42:14;5.90;;;4.10;;
21979;SDS011;11154;48.558;9.234;2022-07-23T04:44:16;6.10;;;4.25;;
21979;SDS011;11154;48.558;9.234;2022-07-23T04:46:18;6.88;;;4.20;;
21979;SDS011;11154;48.558;9.234;2022-07-23T04:48:20;6.65;;;4.63;;
21979;SDS011;11154;48.558;9.234;2022-07-23T04:50:21;7.68;;;4.28;;
21979;SDS011;11154;48.558;9.234;2022-07-23T04:52:23;4.68;;;3.83;;
21979;SDS011;11154;48.558;9.234;2022-07-23T04:54:26;4.88;;;4.40;;
21979;SDS011;11154;48.558;9.234;2022-07-23T04:56:28;6.07;;;4.30;;
21979;SDS011;11154;48.558;9.234;2022-07-23T04:58:30;5.88;;;4.13;;
21979;SDS011;11154;48.558;9.234;2022-07-23T05:00:32;5.97;;;4.45;;
21979;SDS011;11154;48.558;9.234;2022-07-23T05:02:34;4.95;;;4.22;;
21979;SDS011;11154;48.558;9.234;2022-07-23T05:04:35;6.00;;;4.50;;
21979;SDS011;11154;48.558;9.234;2022-07-23T05:06:38;5.35;;;4.53;;
21979;SDS011;11154;48.558;9.234;2022-07-23T05:08:40;5.78;;;4.68;;
21979;SDS011;11154;48.558;9.234;2022-07-23T05:10:43;4.63;;;3.88;;
21979;SDS011;11154;48.558;9.234;2022-07-23T05:12:45;5.78;;;4.40;;
21979;SDS011;11154;48.558;9.234;2022-07-23T05:14:47;8.35;;;4.20;;
21979;SDS011;11154;48.558;9.234;2022-07-23T05:16:48;6.75;;;4.28;;
21979;SDS011;11154;48.558;9.234;2022-07-23T05:18:50;7.40;;;4.53;;
21979;SDS011;11154;48.558;9.234;2022-07-23T05:20:52;6.10;;;4.20;;
21979;SDS011;11154;48.558;9.234;2022-07-23T05:22:54;4.60;;;3.75;;
21979;SDS011;11154;48.558;9.234;2022-07-23T05:24:56;4.60;;;4.18;;
21979;SDS011;11154;48.558;9.234;2022-07-23T05:26:59;8.20;;;4.63;;
21979;SDS011;11154;48.558;9.234;2022-07-23T05:29:00;5.82;;;4.15;;
21979;SDS011;11154;48.558;9.234;2022-07-23T05:31:02;5.35;;;4.28;;
21979;SDS011;11154;48.558;9.234;2022-07-23T05:33:07;5.13;;;4.38;;
21979;SDS011;11154;48.558;9.234;2022-07-23T05:35:09;6.03;;;4.50;;
21979;SDS011;11154;48.558;9.234;2022-07-23T05:37:10;5.20;;;4.32;;
21979;SDS011;11154;48.558;9.234;2022-07-23T05:39:12;5.88;;;4.22;;
21979;SDS011;11154;48.558;9.234;2022-07-23T05:41:13;7.65;;;5.80;;
21979;SDS011;11154;48.558;9.234;2022-07-23T05:43:17;5.30;;;4.63;;
21979;SDS011;11154;48.558;9.234;2022-07-23T05:45:18;6.18;;;4.82;;
21979;SDS011;11154;48.558;9.234;2022-07-23T05:47:20;5.55;;;4.65;;
21979;SDS011;11154;48.558;9.234;2022-07-23T05:49:22;5.10;;;4.60;;
21979;SDS011;11154;48.558;9.234;2022-07-23T05:51:24;6.47;;;4.55;;
21979;SDS011;11154;48.558;9.234;2022-07-23T05:53:26;5.53;;;4.70;;
21979;SDS011;11154;48.558;9.234;2022-07-23T05:55:28;5.45;;;4.57;;
21979;SDS011;11154;48.558;9.234;2022-07-23T05:57:31;7.60;;;4.65;;
21979;SDS011;11154;48.558;9.234;2022-07-23T05:59:34;6.00;;;4.57;;
21979;SDS011;11154;48.558;9.234;2022-07-23T06:01:36;5.32;;;4.57;;
21979;SDS011;11154;48.558;9.234;2022-07-23T06:03:38;8.00;;;4.80;;
21979;SDS011;11154;48.558;9.234;2022-07-23T06:05:39;7.60;;;5.30;;
21979;SDS011;11154;48.558;9.234;2022-07-23T06:07:41;6.35;;;5.40;;
21979;SDS011;11154;48.558;9.234;2022-07-23T06:09:42;7.00;;;5.03;;
21979;SDS011;11154;48.558;9.234;2022-07-23T06:11:44;6.43;;;5.20;;
21979;SDS011;11154;48.558;9.234;2022-07-23T06:13:46;5.68;;;4.85;;
21979;SDS011;11154;48.558;9.234;2022-07-23T06:15:49;8.02;;;5.63;;
21979;SDS011;11154;48.558;9.234;2022-07-23T06:17:51;6.57;;;5.28;;
21979;SDS011;11154;48.558;9.234;2022-07-23T06:19:52;9.32;;;5.57;;
21979;SDS011;11154;48.558;9.234;2022-07-23T06:21:54;6.28;;;5.32;;
21979;SDS011;11154;48.558;9.234;2022-07-23T06:23:56;7.80;;;5.30;;
21979;SDS011;11154;48.558;9.234;2022-07-23T06:25:57;7.40;;;5.07;;
21979;SDS011;11154;48.558;9.234;2022-07-23T06:27:59;6.47;;;5.18;;
21979;SDS011;11154;48.558;9.234;2022-07-23T06:30:01;11.00;;;5.40;;
21979;SDS011;11154;48.558;9.234;2022-07-23T06:32:04;6.90;;;5.93;;
21979;SDS011;11154;48.558;9.234;2022-07-23T06:34:06;7.65;;;4.70;;
21979;SDS011;11154;48.558;9.234;2022-07-23T06:36:08;5.47;;;4.88;;
21979;SDS011;11154;48.558;9.234;2022-07-23T06:38:10;6.80;;;5.00;;
21979;SDS011;11154;48.558;9.234;2022-07-23T06:40:11;5.78;;;5.00;;
21979;SDS011;11154;48.558;9.234;2022-07-23T06:42:13;5.57;;;4.97;;
21979;SDS011;11154;48.558;9.234;2022-07-23T06:44:15;7.43;;;5.40;;
21979;SDS011;11154;48.558;9.234;2022-07-23T06:46:17;5.90;;;5.28;;
21979;SDS011;11154;48.558;9.234;2022-07-23T06:48:20;7.47;;;5.00;;
21979;SDS011;11154;48.558;9.234;2022-07-23T06:50:22;7.03;;;4.85;;
21979;SDS011;11154;48.558;9.234;2022-07-23T06:52:24;5.10;;;4.43;;
21979;SDS011;11154;48.558;9.234;2022-07-23T06:54:27;6.30;;;5.18;;
21979;SDS011;11154;48.558;9.234;2022-07-23T06:56:29;6.45;;;5.03;;
21979;SDS011;11154;48.558;9.234;2022-07-23T06:58:30;9.85;;;5.03;;
21979;SDS011;11154;48.558;9.234;2022-07-23T07:00:32;7.63;;;5.13;;
21979;SDS011;11154;48.558;9.234;2022-07-23T07:02:34;4.97;;;4.47;;
21979;SDS011;11154;48.558;9.234;2022-07-23T07:04:37;5.15;;;4.22;;
21979;SDS011;11154;48.558;9.234;2022-07-23T07:06:39;5.05;;;4.50;;
21979;SDS011;11154;48.558;9.234;2022-07-23T07:08:40;5.97;;;4.95;;
21979;SDS011;11154;48.558;9.234;2022-07-23T07:10:43;5.95;;;4.70;;
21979;SDS011;11154;48.558;9.234;2022-07-23T07:12:44;7.00;;;4.50;;
21979;SDS011;11154;48.558;9.234;2022-07-23T07:14:46;6.53;;;4.93;;
21979;SDS011;11154;48.558;9.234;2022-07-23T07:16:48;5.43;;;4.85;;
21979;SDS011;11154;48.558;9.234;2022-07-23T07:18:50;6.07;;;4.32;;
21979;SDS011;11154;48.558;9.234;2022-07-23T07:20:53;5.40;;;4.70;;
21979;SDS011;11154;48.558;9.234;2022-07-23T07:22:54;7.20;;;4.68;;
21979;SDS011;11154;48.558;9.234;2022-07-23T07:24:56;5.63;;;4.78;;
21979;SDS011;11154;48.558;9.234;2022-07-23T07:26:58;5.93;;;4.80;;
21979;SDS011;11154;48.558;9.234;2022-07-23T07:29:00;6.40;;;4.68;;
21979;SDS011;11154;48.558;9.234;2022-07-23T07:31:01;7.18;;;4.93;;
21979;SDS011;11154;48.558;9.234;2022-07-23T07:33:03;7.38;;;4.80;;
21979;SDS011;11154;48.558;9.234;2022-07-23T07:35:05;6.07;;;4.70;;
21979;SDS011;11154;48.558;9.234;2022-07-23T07:37:09;7.80;;;4.70;;
21979;SDS011;11154;48.558;9.234;2022-07-23T07:39:11;6.25;;;4.10;;
21979;SDS011;11154;48.558;9.234;2022-07-23T07:41:13;5.00;;;4.50;;
21979;SDS011;11154;48.558;9.234;2022-07-23T07:43:14;5.95;;;4.65;;
21979;SDS011;11154;48.558;9.234;2022-07-23T07:45:16;6.35;;;4.47;;
21979;SDS011;11154;48.558;9.234;2022-07-23T07:47:18;5.60;;;5.00;;
21979;SDS011;11154;48.558;9.234;2022-07-23T07:49:20;4.80;;;4.28;;
21979;SDS011;11154;48.558;9.234;2022-07-23T07:51:22;7.22;;;4.18;;
21979;SDS011;11154;48.558;9.234;2022-07-23T07:53:25;7.53;;;4.90;;
21979;SDS011;11154;48.558;9.234;2022-07-23T07:55:26;5.65;;;4.55;;
21979;SDS011;11154;48.558;9.234;2022-07-23T07:57:28;5.28;;;4.78;;
21979;SDS011;11154;48.558;9.234;2022-07-23T07:59:30;7.22;;;4.45;;
21979;SDS011;11154;48.558;9.234;2022-07-23T08:01:31;6.05;;;4.07;;
21979;SDS011;11154;48.558;9.234;2022-07-23T08:03:33;6.15;;;4.70;;
21979;SDS011;11154;48.558;9.234;2022-07-23T08:05:35;6.13;;;4.50;;
21979;SDS011;11154;48.558;9.234;2022-07-23T08:07:36;10.27;;;4.88;;
21979;SDS011;11154;48.558;9.234;2022-07-23T08:09:40;7.30;;;4.80;;
21979;SDS011;11154;48.558;9.234;2022-07-23T08:11:42;5.97;;;4.70;;
21979;SDS011;11154;48.558;9.234;2022-07-23T08:13:44;5.75;;;4.60;;
21979;SDS011;11154;48.558;9.234;2022-07-23T08:15:46;5.00;;;4.05;;
21979;SDS011;11154;48.558;9.234;2022-07-23T08:17:48;5.22;;;4.72;;
21979;SDS011;11154;48.558;9.234;2022-07-23T08:19:50;5.47;;;4.70;;
21979;SDS011;11154;48.558;9.234;2022-07-23T08:21:52;6.47;;;4.78;;
21979;SDS011;11154;48.558;9.234;2022-07-23T08:23:54;7.65;;;4.95;;
21979;SDS011;11154;48.558;9.234;2022-07-23T08:25:57;6.53;;;5.00;;
21979;SDS011;11154;48.558;9.234;2022-07-23T08:28:00;6.70;;;5.07;;
21979;SDS011;11154;48.558;9.234;2022-07-23T08:30:03;5.65;;;4.80;;
21979;SDS011;11154;48.558;9.234;2022-07-23T08:32:05;5.05;;;4.55;;
21979;SDS011;11154;48.558;9.234;2022-07-23T08:34:07;5.03;;;4.53;;
21979;SDS011;11154;48.558;9.234;2022-07-23T08:36:09;5.80;;;4.93;;
21979;SDS011;11154;48.558;9.234;2022-07-23T08:38:11;7.13;;;4.60;;
21979;SDS011;11154;48.558;9.234;2022-07-23T08:40:13;5.70;;;4.60;;
21979;SDS011;11154;48.558;9.234;2022-07-23T08:42:16;5.97;;;4.53;;
21979;SDS011;11154;48.558;9.234;2022-07-23T08:44:19;6.65;;;4.40;;
21979;SDS011;11154;48.558;9.234;2022-07-23T08:46:21;5.68;;;5.07;;
21979;SDS011;11154;48.558;9.234;2022-07-23T08:48:25;4.95;;;4.05;;
21979;SDS011;11154;48.558;9.234;2022-07-23T08:50:28;5.63;;;4.70;;
21979;SDS011;11154;48.558;9.234;2022-07-23T08:52:30;5.78;;;4.57;;
21979;SDS011;11154;48.558;9.234;2022-07-23T08:54:32;6.18;;;4.32;;
21979;SDS011;11154;48.558;9.234;2022-07-23T08:56:35;6.00;;;4.47;;
21979;SDS011;11154;48.558;9.234;2022-07-23T08:58:38;9.32;;;5.32;;
21979;SDS011;11154;48.558;9.234;2022-07-23T09:00:40;5.75;;;4.65;;
21979;SDS011;11154;48.558;9.234;2022-07-23T09:02:43;6.18;;;5.15;;
21979;SDS011;11154;48.558;9.234;2022-07-23T09:04:45;5.68;;;4.55;;
21979;SDS011;11154;48.558;9.234;2022-07-23T09:06:47;6.80;;;4.35;;
21979;SDS011;11154;48.558;9.234;2022-07-23T09:08:49;6.35;;;4.60;;
21979;SDS011;11154;48.558;9.234;2022-07-23T09:10:52;9.30;;;4.82;;
21979;SDS011;11154;48.558;9.234;2022-07-23T09:12:55;7.50;;;4.43;;
21979;SDS011;11154;48.558;9.234;2022-07-23T09:14:58;5.40;;;4.70;;
21979;SDS011;11154;48.558;9.234;2022-07-23T09:17:12;5.82;;;4.65;;
21979;SDS011;11154;48.558;9.234;2022-07-23T09:19:15;5.30;;;4.55;;
21979;SDS011;11154;48.558;9.234;2022-07-23T09:21:17;6.10;;;4.35;;
21979;SDS011;11154;48.558;9.234;2022-07-23T09:23:23;6.38;;;5.38;;
21979;SDS011;11154;48.558;9.234;2022-07-23T09:25:38;5.00;;;4.03;;
21979;SDS011;11154;48.558;9.234;2022-07-23T09:27:50;4.88;;;4.32;;
21979;SDS011;11154;48.558;9.234;2022-07-23T09:29:56;7.88;;;4.85;;
21979;SDS011;11154;48.558;9.234;2022-07-23T09:31:59;5.82;;;4.68;;
21979;SDS011;11154;48.558;9.234;2022-07-23T09:34:10;6.50;;;4.72;;
21979;SDS011;11154;48.558;9.234;2022-07-23T09:36:13;6.72;;;4.53;;
21979;SDS011;11154;48.558;9.234;2022-07-23T09:38:15;7.22;;;4.88;;
21979;SDS011;11154;48.558;9.234;2022-07-23T09:40:17;6.10;;;5.00;;
21979;SDS011;11154;48.558;9.234;2022-07-23T09:42:20;6.45;;;4.70;;
21979;SDS011;11154;48.558;9.234;2022-07-23T09:44:23;7.07;;;4.65;;
21979;SDS011;11154;48.558;9.234;2022-07-23T09:46:25;6.40;;;4.93;;
21979;SDS011;11154;48.558;9.234;2022-07-23T09:48:29;4.90;;;4.40;;
21979;SDS011;11154;48.558;9.234;2022-07-23T09:50:32;6.18;;;4.65;;
21979;SDS011;11154;48.558;9.234;2022-07-23T09:52:34;10.13;;;4.38;;
21979;SDS011;11154;48.558;9.234;2022-07-23T09:54:37;4.93;;;4.40;;
21979;SDS011;11154;48.558;9.234;2022-07-23T09:56:40;4.93;;;4.43;;
21979;SDS011;11154;48.558;9.234;2022-07-23T09:58:44;6.10;;;4.55;;
21979;SDS011;11154;48.558;9.234;2022-07-23T10:00:49;6.07;;;4.60;;
21979;SDS011;11154;48.558;9.234;2022-07-23T10:02:51;5.50;;;4.18;;
21979;SDS011;11154;48.558;9.234;2022-07-23T10:04:55;5.80;;;5.00;;
21979;SDS011;11154;48.558;9.234;2022-07-23T10:06:58;7.15;;;4.50;;
21979;SDS011;11154;48.558;9.234;2022-07-23T10:09:00;8.73;;;4.82;;
21979;SDS011;11154;48.558;9.234;2022-07-23T10:11:03;5.40;;;4.68;;
21979;SDS011;11154;48.558;9.234;2022-07-23T10:13:05;6.32;;;4.85;;
21979;SDS011;11154;48.558;9.234;2022-07-23T10:15:23;6.43;;;5.15;;
21979;SDS011;11154;48.558;9.234;2022-07-23T10:17:26;5.20;;;4.70;;
21979;SDS011;11154;48.558;9.234;2022-07-23T10:19:28;4.60;;;3.97;;
21979;SDS011;11154;48.558;9.234;2022-07-23T10:21:34;6.00;;;4.90;;
21979;SDS011;11154;48.558;9.234;2022-07-23T10:23:42;7.32;;;4.93;;
21979;SDS011;11154;48.558;9.234;2022-07-23T10:25:51;6.25;;;4.60;;
21979;SDS011;11154;48.558;9.234;2022-07-23T10:28:04;6.88;;;4.78;;
21979;SDS011;11154;48.558;9.234;2022-07-23T10:30:18;8.35;;;5.38;;
21979;SDS011;11154;48.558;9.234;2022-07-23T10:32:26;5.32;;;4.70;;
21979;SDS011;11154;48.558;9.234;2022-07-23T10:34:40;8.32;;;5.28;;
21979;SDS011;11154;48.558;9.234;2022-07-23T10:36:51;6.28;;;5.00;;
21979;SDS011;11154;48.558;9.234;2022-07-23T10:38:58;5.90;;;4.75;;
21979;SDS011;11154;48.558;9.234;2022-07-23T10:41:06;5.75;;;5.13;;
21979;SDS011;11154;48.558;9.234;2022-07-23T10:43:12;4.82;;;4.43;;
21979;SDS011;11154;48.558;9.234;2022-07-23T10:47:39;5.78;;;5.10;;
21979;SDS011;11154;48.558;9.234;2022-07-23T10:49:41;5.90;;;4.75;;
21979;SDS011;11154;48.558;9.234;2022-07-23T10:54:34;5.88;;;4.93;;
21979;SDS011;11154;48.558;9.234;2022-07-23T10:56:49;5.97;;;5.18;;
21979;SDS011;11154;48.558;9.234;2022-07-23T10:59:04;6.40;;;4.82;;
21979;SDS011;11154;48.558;9.234;2022-07-23T11:03:33;6.38;;;4.85;;
21979;SDS011;11154;48.558;9.234;2022-07-23T11:05:41;5.70;;;4.85;;
21979;SDS011;11154;48.558;9.234;2022-07-23T11:10:33;5.78;;;4.50;;
21979;SDS011;11154;48.558;9.234;2022-07-23T11:12:35;5.95;;;4.78;;
21979;SDS011;11154;48.558;9.234;2022-07-23T11:17:01;5.50;;;4.90;;
21979;SDS011;11154;48.558;9.234;2022-07-23T11:19:03;6.03;;;5.00;;
21979;SDS011;11154;48.558;9.234;2022-07-23T11:23:59;6.50;;;4.97;;
21979;SDS011;11154;48.558;9.234;2022-07-23T11:26:03;6.47;;;4.85;;
21979;SDS011;11154;48.558;9.234;2022-07-23T11:28:10;6.03;;;4.90;;
21979;SDS011;11154;48.558;9.234;2022-07-23T11:30:36;5.20;;;4.70;;
21979;SDS011;11154;48.558;9.234;2022-07-23T11:32:40;6.80;;;5.50;;
21979;SDS011;11154;48.558;9.234;2022-07-23T11:34:44;7.05;;;5.00;;
21979;SDS011;11154;48.558;9.234;2022-07-23T11:36:50;5.43;;;4.93;;
21979;SDS011;11154;48.558;9.234;2022-07-23T11:38:52;6.00;;;5.15;;
21979;SDS011;11154;48.558;9.234;2022-07-23T11:40:55;6.93;;;5.05;;
21979;SDS011;11154;48.558;9.234;2022-07-23T11:42:59;6.68;;;5.30;;
21979;SDS011;11154;48.558;9.234;2022-07-23T11:45:03;5.55;;;4.63;;
21979;SDS011;11154;48.558;9.234;2022-07-23T11:47:07;5.43;;;4.93;;
21979;SDS011;11154;48.558;9.234;2022-07-23T11:49:11;6.82;;;5.30;;
21979;SDS011;11154;48.558;9.234;2022-07-23T11:51:24;10.25;;;5.28;;
21979;SDS011;11154;48.558;9.234;2022-07-23T11:53:27;4.93;;;4.35;;
21979;SDS011;11154;48.558;9.234;2022-07-23T11:55:30;6.40;;;4.78;;
21979;SDS011;11154;48.558;9.234;2022-07-23T11:57:32;5.65;;;5.10;;
21979;SDS011;11154;48.558;9.234;2022-07-23T11:59:36;7.78;;;4.85;;
21979;SDS011;11154;48.558;9.234;2022-07-23T12:01:52;8.18;;;4.75;;
21979;SDS011;11154;48.558;9.234;2022-07-23T12:03:57;5.78;;;4.88;;
21979;SDS011;11154;48.558;9.234;2022-07-23T12:05:59;5.68;;;4.50;;
21979;SDS011;11154;48.558;9.234;2022-07-23T12:08:02;5.70;;;4.70;;
21979;SDS011;11154;48.558;9.234;2022-07-23T12:10:10;5.97;;;4.82;;
21979;SDS011;11154;48.558;9.234;2022-07-23T12:12:14;5.00;;;4.45;;
21979;SDS011;11154;48.558;9.234;2022-07-23T12:14:16;5.00;;;4.50;;
21979;SDS011;11154;48.558;9.234;2022-07-23T12:16:19;4.82;;;4.35;;
21979;SDS011;11154;48.558;9.234;2022-07-23T12:18:21;5.88;;;4.65;;
21979;SDS011;11154;48.558;9.234;2022-07-23T12:20:24;10.68;;;4.63;;
21979;SDS011;11154;48.558;9.234;2022-07-23T12:22:33;6.13;;;4.90;;
21979;SDS011;11154;48.558;9.234;2022-07-23T12:27:09;5.15;;;4.40;;
21979;SDS011;11154;48.558;9.234;2022-07-23T12:29:11;8.65;;;4.80;;
21979;SDS011;11154;48.558;9.234;2022-07-23T12:31:12;6.53;;;4.25;;
21979;SDS011;11154;48.558;9.234;2022-07-23T12:33:21;6.35;;;4.55;;
21979;SDS011;11154;48.558;9.234;2022-07-23T12:35:29;4.97;;;4.40;;
21979;SDS011;11154;48.558;9.234;2022-07-23T12:37:33;4.90;;;4.40;;
21979;SDS011;11154;48.558;9.234;2022-07-23T12:39:36;4.90;;;4.40;;